createdAt,value
2019-05-05T00:01:42.119Z,46.90
2019-05-05T00:04:39.430Z,47.20
2019-05-05T00:07:08.635Z,47.60
2019-05-05T00:09:37.611Z,48.30
2019-05-05T00:12:29.593Z,48.10
2019-05-05T00:15:17.643Z,48.10
2019-05-05T00:17:46.667Z,48.40
2019-05-05T00:20:16.146Z,48.70
2019-05-05T00:22:45.541Z,48.50
2019-05-05T00:25:14.793Z,48.50
2019-05-05T00:27:45.236Z,49.00
2019-05-05T00:30:15.026Z,48.90
2019-05-05T00:32:44.306Z,48.80
2019-05-05T00:35:14.858Z,48.80
2019-05-05T00:37:45.088Z,49.00
2019-05-05T00:40:15.156Z,48.80
2019-05-05T00:42:45.608Z,49.10
2019-05-05T00:45:15.230Z,49.30
2019-05-05T00:48:04.657Z,49.60
2019-05-05T00:50:34.369Z,49.20
2019-05-05T00:53:05.401Z,49.10
2019-05-05T00:55:34.951Z,49.40
2019-05-05T00:58:05.254Z,49.90
2019-05-05T01:00:59.176Z,49.90
2019-05-05T01:03:28.789Z,50.00
2019-05-05T01:06:20.189Z,49.80
2019-05-05T01:08:49.118Z,49.30
2019-05-05T01:11:19.203Z,48.60
2019-05-05T01:13:48.502Z,48.60
2019-05-05T01:16:17.579Z,48.90
2019-05-05T01:18:47.546Z,48.70
2019-05-05T01:21:16.501Z,48.20
2019-05-05T01:23:45.682Z,49.00
2019-05-05T01:26:14.697Z,48.90
2019-05-05T01:28:44.724Z,48.40
2019-05-05T01:31:16.623Z,48.30
2019-05-05T01:33:58.209Z,48.60
2019-05-05T01:36:27.181Z,48.50
2019-05-05T01:39:10.167Z,47.90
2019-05-05T01:41:42.709Z,47.70
2019-05-05T01:44:11.621Z,48.30
2019-05-05T01:46:40.901Z,48.70
2019-05-05T01:49:09.859Z,49.00
2019-05-05T01:51:38.773Z,49.20
2019-05-05T01:54:07.981Z,49.90
2019-05-05T01:56:37.483Z,49.30
2019-05-05T01:59:07.066Z,49.70
2019-05-05T02:01:35.992Z,49.80
2019-05-05T02:04:05.645Z,49.80
2019-05-05T02:06:35.142Z,49.60
2019-05-05T02:09:06.174Z,49.40
2019-05-05T02:11:35.374Z,49.30
2019-05-05T02:14:05.228Z,48.70
2019-05-05T02:16:34.815Z,49.00
2019-05-05T02:19:05.019Z,48.70
2019-05-05T02:21:35.298Z,48.80
2019-05-05T02:24:05.496Z,48.70
2019-05-05T02:26:35.456Z,48.70
2019-05-05T02:29:24.657Z,48.80
2019-05-05T02:32:11.450Z,48.80
2019-05-05T02:34:46.336Z,48.80
2019-05-05T02:37:16.172Z,48.50
2019-05-05T02:39:57.275Z,48.40
2019-05-05T02:42:16.938Z,48.30
2019-05-05T02:44:46.854Z,48.20
2019-05-05T02:47:25.744Z,48.30
2019-05-05T02:49:57.846Z,48.30
2019-05-05T02:52:27.470Z,48.20
2019-05-05T02:54:56.459Z,48.20
2019-05-05T02:57:25.552Z,48.40
2019-05-05T03:00:04.467Z,48.30
2019-05-05T03:02:35.645Z,48.60
2019-05-05T03:05:05.763Z,48.70
2019-05-05T03:07:36.390Z,47.60
2019-05-05T03:10:05.950Z,48.10
2019-05-05T03:12:37.978Z,47.80
2019-05-05T03:15:08.029Z,48.10
2019-05-05T03:17:37.439Z,48.10
2019-05-05T03:20:06.795Z,48.50
2019-05-05T03:22:36.402Z,48.70
2019-05-05T03:25:05.734Z,47.40
2019-05-05T03:27:34.650Z,48.00
2019-05-05T03:30:05.165Z,47.50
2019-05-05T03:32:35.960Z,48.00
2019-05-05T03:35:05.417Z,47.70
2019-05-05T03:37:34.510Z,47.80
2019-05-05T03:40:11.276Z,48.30
2019-05-05T03:42:47.585Z,48.10
2019-05-05T03:45:44.930Z,48.50
2019-05-05T03:48:14.563Z,48.10
2019-05-05T03:50:44.650Z,48.60
2019-05-05T03:53:14.114Z,48.80
2019-05-05T03:55:44.032Z,49.20
2019-05-05T03:58:14.708Z,48.50
2019-05-05T04:01:20.134Z,47.40
2019-05-05T04:03:49.058Z,48.20
2019-05-05T04:06:35.957Z,47.70
2019-05-05T04:09:06.597Z,47.10
2019-05-05T04:11:35.594Z,47.30
2019-05-05T04:14:04.691Z,46.80
2019-05-05T04:16:40.217Z,47.30
2019-05-05T04:19:10.192Z,47.40
2019-05-05T04:21:39.118Z,46.70
2019-05-05T04:24:07.966Z,46.80
2019-05-05T04:26:36.809Z,47.70
2019-05-05T04:29:06.447Z,47.20
2019-05-05T04:31:35.342Z,46.90
2019-05-05T04:34:04.355Z,47.10
2019-05-05T04:36:34.068Z,46.80
2019-05-05T04:39:03.907Z,47.20
2019-05-05T04:41:33.797Z,46.90
2019-05-05T04:44:03.986Z,46.30
2019-05-05T04:46:33.822Z,47.10
2019-05-05T04:49:16.158Z,47.20
2019-05-05T04:51:50.199Z,47.20
2019-05-05T04:54:24.410Z,47.10
2019-05-05T04:56:53.983Z,47.30
2019-05-05T04:59:23.585Z,47.30
2019-05-05T05:01:55.782Z,47.90
2019-05-05T05:04:49.653Z,47.30
2019-05-05T05:07:19.262Z,46.80
2019-05-05T05:09:48.178Z,47.20
2019-05-05T05:12:17.171Z,47.20
2019-05-05T05:14:46.038Z,47.60
2019-05-05T05:17:20.326Z,47.20
2019-05-05T05:19:49.241Z,46.30
2019-05-05T05:22:18.086Z,46.50
2019-05-05T05:24:47.005Z,46.50
2019-05-05T05:27:15.913Z,46.60
2019-05-05T05:29:44.912Z,46.70
2019-05-05T05:32:15.561Z,46.30
2019-05-05T05:34:44.614Z,46.40
2019-05-05T05:37:13.566Z,46.30
2019-05-05T05:40:04.665Z,46.00
2019-05-05T05:42:33.699Z,46.00
2019-05-05T05:45:34.391Z,46.00
2019-05-05T05:48:28.731Z,46.40
2019-05-05T05:51:00.278Z,46.40
2019-05-05T05:53:29.197Z,46.70
2019-05-05T05:55:58.182Z,46.40
2019-05-05T05:58:27.020Z,46.40
2019-05-05T06:00:57.327Z,46.70
2019-05-05T06:03:26.262Z,46.60
2019-05-05T06:05:55.202Z,46.60
2019-05-05T06:08:24.412Z,47.20
2019-05-05T06:10:54.674Z,47.40
2019-05-05T06:13:24.290Z,45.90
2019-05-05T06:15:53.663Z,46.00
2019-05-05T06:18:24.306Z,45.80
2019-05-05T06:20:53.872Z,45.80
2019-05-05T06:23:23.967Z,45.80
2019-05-05T06:25:55.138Z,45.90
2019-05-05T06:28:23.834Z,45.90
2019-05-05T06:30:54.652Z,45.70
2019-05-05T06:33:24.259Z,46.10
2019-05-05T06:35:53.704Z,46.20
2019-05-05T06:38:24.233Z,46.10
2019-05-05T06:41:04.189Z,46.40
2019-05-05T06:43:55.071Z,46.20
2019-05-05T06:46:27.763Z,45.80
2019-05-05T06:48:56.778Z,46.40
2019-05-05T06:51:25.697Z,45.80
2019-05-05T06:53:54.668Z,45.70
2019-05-05T06:56:23.871Z,45.50
2019-05-05T06:58:54.046Z,45.40
2019-05-05T07:01:24.770Z,45.20
2019-05-05T07:03:54.200Z,45.00
2019-05-05T07:06:23.994Z,44.90
2019-05-05T07:08:54.481Z,44.70
2019-05-05T07:11:24.028Z,45.10
2019-05-05T07:13:53.669Z,44.90
2019-05-05T07:16:24.344Z,44.80
2019-05-05T07:18:54.030Z,44.70
2019-05-05T07:21:23.791Z,45.10
2019-05-05T07:23:53.827Z,45.30
2019-05-05T07:26:23.791Z,44.90
2019-05-05T07:28:54.181Z,44.70
2019-05-05T07:31:23.918Z,44.70
2019-05-05T07:33:54.414Z,44.60
2019-05-05T07:36:45.951Z,44.50
2019-05-05T07:39:15.020Z,43.60
2019-05-05T07:41:44.732Z,44.10
2019-05-05T07:44:25.867Z,43.40
2019-05-05T07:46:44.726Z,43.20
2019-05-05T07:49:14.000Z,42.90
2019-05-05T07:51:44.269Z,43.60
2019-05-05T07:54:14.506Z,42.30
2019-05-05T07:56:44.389Z,42.70
2019-05-05T07:59:14.632Z,43.10
2019-05-05T08:01:46.514Z,42.50
2019-05-05T08:04:14.576Z,42.00
2019-05-05T08:06:44.539Z,41.90
2019-05-05T08:09:14.614Z,41.70
2019-05-05T08:11:43.765Z,41.70
2019-05-05T08:14:14.610Z,42.00
2019-05-05T08:16:53.483Z,42.30
2019-05-05T08:19:39.189Z,42.10
2019-05-05T08:22:08.201Z,41.90
2019-05-05T08:25:05.549Z,41.80
2019-05-05T08:27:53.701Z,42.20
2019-05-05T08:30:33.663Z,42.10
2019-05-05T08:33:04.630Z,42.00
2019-05-05T08:35:34.446Z,42.50
2019-05-05T08:38:04.556Z,42.40
2019-05-05T08:40:34.555Z,41.90
2019-05-05T08:43:04.633Z,41.90
2019-05-05T08:45:34.890Z,41.70
2019-05-05T08:48:05.031Z,41.90
2019-05-05T08:50:34.814Z,41.60
2019-05-05T08:53:04.859Z,41.80
2019-05-05T08:55:35.034Z,41.50
2019-05-05T08:58:04.548Z,41.10
2019-05-05T09:00:34.002Z,41.50
2019-05-05T09:03:03.865Z,41.80
2019-05-05T09:05:34.332Z,41.90
2019-05-05T09:08:04.532Z,41.70
2019-05-05T09:10:34.426Z,42.10
2019-05-05T09:13:04.019Z,41.40
2019-05-05T09:15:33.707Z,40.80
2019-05-05T09:18:04.919Z,41.10
2019-05-05T09:20:34.748Z,41.50
2019-05-05T09:23:04.497Z,41.00
2019-05-05T09:25:46.018Z,41.20
2019-05-05T09:30:53.551Z,41.00
2019-05-05T09:33:24.596Z,41.20
2019-05-05T09:35:54.190Z,40.50
2019-05-05T09:38:23.936Z,41.50
2019-05-05T09:40:54.441Z,41.00
2019-05-05T09:43:24.119Z,41.40
2019-05-05T09:45:54.443Z,41.70
2019-05-05T09:48:24.350Z,42.10
2019-05-05T09:50:54.163Z,41.30
2019-05-05T09:53:24.092Z,41.30
2019-05-05T09:55:54.800Z,40.80
2019-05-05T09:58:24.344Z,41.10
2019-05-05T10:00:54.696Z,41.50
2019-05-05T10:03:24.224Z,41.10
2019-05-05T10:05:54.048Z,40.50
2019-05-05T10:08:23.669Z,41.10
2019-05-05T10:10:54.766Z,41.10
2019-05-05T10:13:23.663Z,41.10
2019-05-05T10:15:54.792Z,40.60
2019-05-05T10:18:25.402Z,40.90
2019-05-05T10:20:54.186Z,40.10
2019-05-05T10:23:24.791Z,40.30
2019-05-05T10:25:57.451Z,40.00
2019-05-05T10:28:26.474Z,40.00
2019-05-05T10:30:55.483Z,40.30
2019-05-05T10:33:24.793Z,39.80
2019-05-05T10:35:54.224Z,40.10
2019-05-05T10:38:23.630Z,40.20
2019-05-05T10:40:53.701Z,39.00
2019-05-05T10:43:23.851Z,39.80
2019-05-05T10:45:54.652Z,38.30
2019-05-05T10:48:23.840Z,38.50
2019-05-05T10:50:53.745Z,39.50
2019-05-05T10:53:22.878Z,39.60
2019-05-05T10:55:53.836Z,40.00
2019-05-05T10:58:24.357Z,40.20
2019-05-05T11:01:03.969Z,39.80
2019-05-05T11:03:34.296Z,40.00
2019-05-05T11:06:04.521Z,40.10
2019-05-05T11:08:34.995Z,40.20
2019-05-05T11:11:04.474Z,40.30
2019-05-05T11:13:34.439Z,40.80
2019-05-05T11:16:04.155Z,40.30
2019-05-05T11:18:34.529Z,40.30
2019-05-05T11:21:04.125Z,40.10
2019-05-05T11:23:34.555Z,39.70
2019-05-05T11:26:04.149Z,40.10
2019-05-05T11:28:33.886Z,38.90
2019-05-05T11:31:04.480Z,38.80
2019-05-05T11:34:01.653Z,38.80
2019-05-05T11:36:49.634Z,39.90
2019-05-05T11:39:18.715Z,41.70
2019-05-05T11:41:47.677Z,41.20
2019-05-05T11:44:16.614Z,40.80
2019-05-05T11:46:45.558Z,41.20
2019-05-05T11:49:14.422Z,41.20
2019-05-05T11:51:43.817Z,41.30
2019-05-05T11:54:14.043Z,41.40
2019-05-05T11:56:44.689Z,41.40
2019-05-05T11:59:14.550Z,41.60
2019-05-05T12:01:44.062Z,42.00
2019-05-05T12:04:14.777Z,40.90
2019-05-05T12:06:44.374Z,41.40
2019-05-05T12:09:20.966Z,40.80
2019-05-05T12:11:49.802Z,41.10
2019-05-05T12:14:20.518Z,41.80
2019-05-05T12:16:49.383Z,41.70
2019-05-05T12:19:18.310Z,41.90
2019-05-05T12:21:47.153Z,41.80
2019-05-05T12:24:24.823Z,41.80
2019-05-05T12:27:17.802Z,41.70
2019-05-05T12:29:59.601Z,42.10
2019-05-05T12:32:28.549Z,41.70
2019-05-05T12:34:57.386Z,41.70
2019-05-05T12:37:26.318Z,41.70
2019-05-05T12:39:55.147Z,41.70
2019-05-05T12:42:24.288Z,41.20
2019-05-05T12:45:01.673Z,41.00
2019-05-05T12:47:50.487Z,41.40
2019-05-05T12:50:19.994Z,41.30
2019-05-05T12:52:48.987Z,41.20
2019-05-05T12:55:18.017Z,41.40
2019-05-05T12:57:46.947Z,41.80
2019-05-05T13:00:17.882Z,41.50
2019-05-05T13:02:46.838Z,41.70
2019-05-05T13:05:15.762Z,42.20
2019-05-05T13:07:44.695Z,42.00
2019-05-05T13:10:16.609Z,42.90
2019-05-05T13:12:45.525Z,42.40
2019-05-05T13:15:14.478Z,42.40
2019-05-05T13:17:43.832Z,41.80
2019-05-05T13:20:24.668Z,42.00
2019-05-05T13:23:09.962Z,42.80
2019-05-05T13:26:07.437Z,41.90
2019-05-05T13:28:36.491Z,41.50
2019-05-05T13:31:05.499Z,41.40
2019-05-05T13:33:37.216Z,41.30
2019-05-05T13:36:05.642Z,41.60
2019-05-05T13:38:34.601Z,41.10
2019-05-05T13:41:03.798Z,41.20
2019-05-05T13:43:34.248Z,40.80
2019-05-05T13:46:14.364Z,41.00
2019-05-05T13:48:44.396Z,40.90
2019-05-05T13:51:14.760Z,40.00
2019-05-05T13:53:44.812Z,39.90
2019-05-05T13:56:15.351Z,39.50
2019-05-05T13:58:44.557Z,39.40
2019-05-05T14:01:14.508Z,40.20
2019-05-05T14:03:44.705Z,39.90
2019-05-05T14:06:14.281Z,39.70
2019-05-05T14:08:44.784Z,39.60
2019-05-05T14:11:14.292Z,40.20
2019-05-05T14:13:45.488Z,39.20
2019-05-05T14:16:14.457Z,39.70
2019-05-05T14:18:43.850Z,39.40
2019-05-05T14:21:14.064Z,39.80
2019-05-05T14:24:10.069Z,39.90
2019-05-05T14:26:38.890Z,38.90
2019-05-05T14:29:09.917Z,38.50
2019-05-05T14:31:40.286Z,38.60
2019-05-05T14:34:17.785Z,39.40
2019-05-05T14:37:05.817Z,39.30
2019-05-05T14:39:34.850Z,39.50
2019-05-05T14:42:04.455Z,40.20
2019-05-05T14:44:34.350Z,40.50
2019-05-05T14:47:04.813Z,40.10
2019-05-05T14:49:34.027Z,40.30
2019-05-05T14:52:04.433Z,39.50
2019-05-05T14:54:34.164Z,40.40
2019-05-05T14:57:04.547Z,39.60
2019-05-05T14:59:34.066Z,40.00
2019-05-05T15:02:04.320Z,40.30
2019-05-05T15:04:35.041Z,40.00
2019-05-05T15:07:26.017Z,40.50
2019-05-05T15:10:15.121Z,39.90
2019-05-05T15:12:51.115Z,40.30
2019-05-05T15:15:20.154Z,41.00
2019-05-05T15:17:49.075Z,41.40
2019-05-05T15:20:18.073Z,42.00
2019-05-05T15:22:47.099Z,41.50
2019-05-05T15:25:16.244Z,42.60
2019-05-05T15:27:45.326Z,42.10
2019-05-05T15:30:14.638Z,42.10
2019-05-05T15:32:46.120Z,41.80
2019-05-05T15:35:15.121Z,41.60
2019-05-05T15:37:44.145Z,41.50
2019-05-05T15:40:14.341Z,41.30
2019-05-05T15:42:43.966Z,40.60
2019-05-05T15:45:13.270Z,40.90
2019-05-05T15:47:43.519Z,40.90
2019-05-05T15:50:16.877Z,40.20
2019-05-05T15:52:45.909Z,40.70
2019-05-05T15:55:16.133Z,40.50
2019-05-05T15:57:45.142Z,40.80
2019-05-05T16:00:15.124Z,41.10
2019-05-05T16:02:44.314Z,40.90
2019-05-05T16:05:14.210Z,40.70
2019-05-05T16:07:44.000Z,41.20
2019-05-05T16:10:14.936Z,41.00
2019-05-05T16:12:44.974Z,41.50
2019-05-05T16:15:50.972Z,41.50
2019-05-05T16:18:37.004Z,41.00
2019-05-05T16:21:34.634Z,41.60
2019-05-05T16:24:17.863Z,41.70
2019-05-05T16:26:46.854Z,41.80
2019-05-05T16:29:15.868Z,42.10
2019-05-05T16:31:44.721Z,42.00
2019-05-05T16:34:14.266Z,41.30
2019-05-05T16:36:43.995Z,40.80
2019-05-05T16:39:13.841Z,41.40
2019-05-05T16:41:43.780Z,40.90
2019-05-05T16:44:15.557Z,40.90
2019-05-05T16:46:43.551Z,41.60
2019-05-05T16:49:14.037Z,41.70
2019-05-05T16:51:49.323Z,41.20
2019-05-05T16:54:24.970Z,41.90
2019-05-05T16:56:53.885Z,41.90
2019-05-05T16:59:23.728Z,42.10
2019-05-05T17:01:54.116Z,41.50
2019-05-05T17:04:24.348Z,41.40
2019-05-05T17:06:54.643Z,41.80
2019-05-05T17:09:24.172Z,42.30
2019-05-05T17:12:11.422Z,41.60
2019-05-05T17:15:00.555Z,42.50
2019-05-05T17:17:45.037Z,42.40
2019-05-05T17:20:16.425Z,41.50
2019-05-05T17:22:55.317Z,42.50
2019-05-05T17:25:24.706Z,42.10
2019-05-05T17:27:54.563Z,41.60
2019-05-05T17:30:27.003Z,41.30
2019-05-05T17:32:55.045Z,41.70
2019-05-05T17:35:24.099Z,41.00
2019-05-05T17:37:53.857Z,40.40
2019-05-05T17:40:40.552Z,40.70
2019-05-05T17:43:27.866Z,40.40
2019-05-05T17:46:09.539Z,40.10
2019-05-05T17:48:53.865Z,40.40
2019-05-05T17:51:43.633Z,41.00
2019-05-05T17:54:41.020Z,40.90
2019-05-05T17:57:09.951Z,40.80
2019-05-05T17:59:38.876Z,40.00
2019-05-05T18:02:08.007Z,40.50
2019-05-05T18:04:37.150Z,40.50
2019-05-05T18:07:25.187Z,40.80
2019-05-05T18:10:04.094Z,40.00
2019-05-05T18:12:53.935Z,40.30
2019-05-05T18:15:40.475Z,40.30
2019-05-05T18:18:09.467Z,40.20
2019-05-05T18:20:38.443Z,40.20
2019-05-05T18:23:07.334Z,40.00
2019-05-05T18:25:36.186Z,40.30
2019-05-05T18:28:16.305Z,40.60
2019-05-05T18:30:35.874Z,40.70
2019-05-05T18:33:04.862Z,41.00
2019-05-05T18:35:33.985Z,40.40
2019-05-05T18:38:04.068Z,40.20
2019-05-05T18:40:33.736Z,39.90
2019-05-05T18:43:07.636Z,39.30
2019-05-05T18:45:36.903Z,40.30
2019-05-05T18:48:05.978Z,40.50
2019-05-05T18:50:35.008Z,41.20
2019-05-05T18:53:04.690Z,41.00
2019-05-05T18:55:33.922Z,41.50
2019-05-05T18:58:05.185Z,41.50
2019-05-05T19:00:56.531Z,41.50
2019-05-05T19:03:29.798Z,41.50
2019-05-05T19:06:17.737Z,41.20
2019-05-05T19:08:54.146Z,41.00
2019-05-05T19:11:20.777Z,41.40
2019-05-05T19:13:49.805Z,41.70
2019-05-05T19:16:18.770Z,41.40
2019-05-05T19:18:47.839Z,42.20
2019-05-05T19:21:28.425Z,42.00
2019-05-05T19:23:57.349Z,41.60
2019-05-05T19:26:26.478Z,41.70
2019-05-05T19:28:55.432Z,41.30
2019-05-05T19:31:24.412Z,41.90
2019-05-05T19:33:55.639Z,41.00
2019-05-05T19:36:24.807Z,41.10
2019-05-05T19:38:54.962Z,41.30
2019-05-05T19:41:24.121Z,41.10
2019-05-05T19:43:54.722Z,41.10
2019-05-05T19:46:29.468Z,41.40
2019-05-05T19:49:17.590Z,41.80
2019-05-05T19:51:47.129Z,41.90
2019-05-05T19:54:36.437Z,41.90
2019-05-05T19:57:05.540Z,41.80
2019-05-05T19:59:35.834Z,41.70
2019-05-05T20:02:06.022Z,42.00
2019-05-05T20:04:34.957Z,42.20
2019-05-05T20:07:04.453Z,41.90
2019-05-05T20:09:34.134Z,42.10
2019-05-05T20:12:04.011Z,42.10
2019-05-05T20:14:34.219Z,42.00
2019-05-05T20:17:08.985Z,41.70
2019-05-05T20:19:44.153Z,41.80
2019-05-05T20:22:14.644Z,42.40
2019-05-05T20:24:44.543Z,42.50
2019-05-05T20:27:14.259Z,43.10
2019-05-05T20:29:43.673Z,42.60
2019-05-05T20:32:13.919Z,43.20
2019-05-05T20:35:01.020Z,41.70
2019-05-05T20:37:40.215Z,41.70
2019-05-05T20:40:11.115Z,41.40
2019-05-05T20:42:40.047Z,41.80
2019-05-05T20:45:10.783Z,41.70
2019-05-05T20:47:39.721Z,41.60
2019-05-05T20:50:08.762Z,41.70
2019-05-05T20:52:37.860Z,42.00
2019-05-05T20:55:07.070Z,41.30
2019-05-05T20:57:36.044Z,41.00
2019-05-05T21:00:05.757Z,41.90
2019-05-05T21:02:34.766Z,41.20
2019-05-05T21:05:04.154Z,41.00
2019-05-05T21:07:34.616Z,41.30
2019-05-05T21:10:04.536Z,41.90
2019-05-05T21:12:42.240Z,41.60
2019-05-05T21:15:05.049Z,42.00
2019-05-05T21:17:34.556Z,42.10
2019-05-05T21:20:04.386Z,41.30
2019-05-05T21:22:40.427Z,41.60
2019-05-05T21:25:24.000Z,41.70
2019-05-05T21:27:53.360Z,42.40
2019-05-05T21:30:23.854Z,42.00
2019-05-05T21:32:54.643Z,42.00
2019-05-05T21:35:24.092Z,42.20
2019-05-05T21:37:54.366Z,42.20
2019-05-05T21:40:25.107Z,42.10
2019-05-05T21:42:54.307Z,41.70
2019-05-05T21:45:23.683Z,41.40
2019-05-05T21:47:54.796Z,41.60
2019-05-05T21:50:34.747Z,41.70
2019-05-05T21:53:31.664Z,41.50
2019-05-05T21:56:09.912Z,41.60
2019-05-05T21:58:44.025Z,41.60
2019-05-05T22:01:16.187Z,41.40
2019-05-05T22:03:45.188Z,41.40
2019-05-05T22:06:14.714Z,41.70
2019-05-05T22:08:43.918Z,41.40
2019-05-05T22:11:14.711Z,41.30
2019-05-05T22:13:44.360Z,41.40
2019-05-05T22:16:13.786Z,41.40
2019-05-05T22:18:44.684Z,41.80
2019-05-05T22:21:35.718Z,42.10
2019-05-05T22:24:16.904Z,42.00
2019-05-05T22:26:46.939Z,42.10
2019-05-05T22:29:17.065Z,42.10
2019-05-05T22:31:46.497Z,42.20
2019-05-05T22:34:15.448Z,42.40
2019-05-05T22:36:44.971Z,42.10
2019-05-05T22:39:16.861Z,42.30
2019-05-05T22:41:45.439Z,42.10
2019-05-05T22:44:14.482Z,42.20
2019-05-05T22:46:43.461Z,42.30
2019-05-05T22:49:14.591Z,42.60
2019-05-05T22:51:44.681Z,42.70
2019-05-05T22:54:15.001Z,42.70
2019-05-05T22:56:44.906Z,43.10
2019-05-05T22:59:14.065Z,42.60
2019-05-05T23:01:43.090Z,42.30
2019-05-05T23:04:46.263Z,42.50
2019-05-05T23:07:25.782Z,42.60
2019-05-05T23:09:54.718Z,43.00
2019-05-05T23:12:24.427Z,43.20
2019-05-05T23:14:54.508Z,43.50
2019-05-05T23:17:45.162Z,43.20
2019-05-05T23:20:44.453Z,43.90
2019-05-05T23:23:24.654Z,43.50
2019-05-05T23:25:54.958Z,43.60
2019-05-05T23:28:26.468Z,43.80
2019-05-05T23:30:54.881Z,44.00
2019-05-05T23:33:25.003Z,44.20
2019-05-05T23:35:55.011Z,44.20
2019-05-05T23:38:24.336Z,44.40
2019-05-05T23:40:54.122Z,44.30
2019-05-05T23:43:24.789Z,44.50
2019-05-05T23:45:54.198Z,45.00
2019-05-05T23:48:24.096Z,45.00
2019-05-05T23:50:54.217Z,45.00
2019-05-05T23:53:24.857Z,45.00
2019-05-05T23:55:54.713Z,45.00
2019-05-05T23:58:24.159Z,45.20
